sensor_id;sensor_type;location;lat;lon;timestamp;temperature;humidity
15152;DHT22;7676;50.900;6.234;2022-07-12T00:01:31;20.90;99.90
15152;DHT22;7676;50.900;6.234;2022-07-12T00:06:34;20.70;99.90
15152;DHT22;7676;50.900;6.234;2022-07-12T00:11:37;20.70;99.90
15152;DHT22;7676;50.900;6.234;2022-07-12T00:16:39;20.70;99.90
15152;DHT22;7676;50.900;6.234;2022-07-12T00:21:43;20.70;99.90
15152;DHT22;7676;50.900;6.234;2022-07-12T00:26:45;20.70;99.90
15152;DHT22;7676;50.900;6.234;2022-07-12T00:31:47;20.50;99.90
15152;DHT22;7676;50.900;6.234;2022-07-12T00:36:50;20.50;99.90
15152;DHT22;7676;50.900;6.234;2022-07-12T00:41:52;20.40;99.90
15152;DHT22;7676;50.900;6.234;2022-07-12T00:46:54;20.50;99.90
15152;DHT22;7676;50.900;6.234;2022-07-12T00:51:58;20.30;99.90
15152;DHT22;7676;50.900;6.234;2022-07-12T00:57:00;20.20;99.90
15152;DHT22;7676;50.900;6.234;2022-07-12T01:02:03;20.60;99.90
15152;DHT22;7676;50.900;6.234;2022-07-12T01:07:05;20.30;99.90
15152;DHT22;7676;50.900;6.234;2022-07-12T01:12:09;20.20;99.90
15152;DHT22;7676;50.900;6.234;2022-07-12T01:17:11;20.20;99.90
15152;DHT22;7676;50.900;6.234;2022-07-12T01:22:16;20.20;99.90
15152;DHT22;7676;50.900;6.234;2022-07-12T01:27:19;20.00;99.90
15152;DHT22;7676;50.900;6.234;2022-07-12T01:32:21;19.90;99.90
15152;DHT22;7676;50.900;6.234;2022-07-12T01:37:37;19.90;99.90
15152;DHT22;7676;50.900;6.234;2022-07-12T01:42:41;19.90;99.90
15152;DHT22;7676;50.900;6.234;2022-07-12T01:47:46;19.90;99.90
15152;DHT22;7676;50.900;6.234;2022-07-12T01:52:48;20.10;99.90
15152;DHT22;7676;50.900;6.234;2022-07-12T01:57:52;19.90;99.90
15152;DHT22;7676;50.900;6.234;2022-07-12T02:02:55;19.80;99.90
15152;DHT22;7676;50.900;6.234;2022-07-12T02:07:58;19.70;99.90
15152;DHT22;7676;50.900;6.234;2022-07-12T02:13:06;19.50;99.90
15152;DHT22;7676;50.900;6.234;2022-07-12T02:18:08;19.90;99.90
15152;DHT22;7676;50.900;6.234;2022-07-12T02:23:11;19.30;99.90
15152;DHT22;7676;50.900;6.234;2022-07-12T02:28:14;19.20;99.90
15152;DHT22;7676;50.900;6.234;2022-07-12T02:33:16;19.20;99.90
15152;DHT22;7676;50.900;6.234;2022-07-12T02:38:18;19.10;99.90
15152;DHT22;7676;50.900;6.234;2022-07-12T02:43:23;19.10;99.90
15152;DHT22;7676;50.900;6.234;2022-07-12T02:48:26;19.00;99.90
15152;DHT22;7676;50.900;6.234;2022-07-12T02:53:29;18.90;99.90
15152;DHT22;7676;50.900;6.234;2022-07-12T02:58:31;18.90;99.90
15152;DHT22;7676;50.900;6.234;2022-07-12T03:03:33;19.00;99.90
15152;DHT22;7676;50.900;6.234;2022-07-12T03:08:36;19.10;99.90
15152;DHT22;7676;50.900;6.234;2022-07-12T03:13:39;19.00;99.90
15152;DHT22;7676;50.900;6.234;2022-07-12T03:18:41;19.10;99.90
15152;DHT22;7676;50.900;6.234;2022-07-12T03:23:44;18.70;99.90
15152;DHT22;7676;50.900;6.234;2022-07-12T03:28:46;17.80;99.90
15152;DHT22;7676;50.900;6.234;2022-07-12T03:33:48;17.50;99.90
15152;DHT22;7676;50.900;6.234;2022-07-12T03:38:51;17.50;99.90
15152;DHT22;7676;50.900;6.234;2022-07-12T03:43:53;17.80;99.90
15152;DHT22;7676;50.900;6.234;2022-07-12T03:48:55;17.90;99.90
15152;DHT22;7676;50.900;6.234;2022-07-12T03:53:58;18.00;99.90
15152;DHT22;7676;50.900;6.234;2022-07-12T03:59:00;18.10;99.90
15152;DHT22;7676;50.900;6.234;2022-07-12T04:04:03;18.00;99.90
15152;DHT22;7676;50.900;6.234;2022-07-12T04:09:06;18.00;99.90
15152;DHT22;7676;50.900;6.234;2022-07-12T04:14:08;18.00;99.90
15152;DHT22;7676;50.900;6.234;2022-07-12T04:19:11;17.80;99.90
15152;DHT22;7676;50.900;6.234;2022-07-12T04:24:13;17.70;99.90
15152;DHT22;7676;50.900;6.234;2022-07-12T04:29:16;17.80;99.90
15152;DHT22;7676;50.900;6.234;2022-07-12T04:34:18;18.20;99.90
15152;DHT22;7676;50.900;6.234;2022-07-12T04:39:21;18.90;99.90
15152;DHT22;7676;50.900;6.234;2022-07-12T04:44:23;19.90;99.90
15152;DHT22;7676;50.900;6.234;2022-07-12T04:49:26;20.60;99.90
15152;DHT22;7676;50.900;6.234;2022-07-12T04:54:28;21.00;99.90
15152;DHT22;7676;50.900;6.234;2022-07-12T04:59:30;21.50;99.90
15152;DHT22;7676;50.900;6.234;2022-07-12T05:04:33;21.60;99.90
15152;DHT22;7676;50.900;6.234;2022-07-12T05:09:35;21.90;99.90
15152;DHT22;7676;50.900;6.234;2022-07-12T05:14:38;22.00;99.90
15152;DHT22;7676;50.900;6.234;2022-07-12T05:19:40;22.50;99.90
15152;DHT22;7676;50.900;6.234;2022-07-12T05:24:42;23.10;99.90
15152;DHT22;7676;50.900;6.234;2022-07-12T05:29:45;23.50;99.90
15152;DHT22;7676;50.900;6.234;2022-07-12T05:34:47;24.20;99.90
15152;DHT22;7676;50.900;6.234;2022-07-12T05:39:49;24.50;99.90
15152;DHT22;7676;50.900;6.234;2022-07-12T05:44:52;25.00;99.90
15152;DHT22;7676;50.900;6.234;2022-07-12T05:49:55;25.40;99.90
15152;DHT22;7676;50.900;6.234;2022-07-12T05:54:58;25.60;99.90
15152;DHT22;7676;50.900;6.234;2022-07-12T06:00:00;25.00;99.90
15152;DHT22;7676;50.900;6.234;2022-07-12T06:05:06;23.90;99.90
15152;DHT22;7676;50.900;6.234;2022-07-12T06:10:09;23.90;99.90
15152;DHT22;7676;50.900;6.234;2022-07-12T06:15:11;24.10;99.90
15152;DHT22;7676;50.900;6.234;2022-07-12T06:20:13;24.60;99.90
15152;DHT22;7676;50.900;6.234;2022-07-12T06:25:16;25.20;99.90
15152;DHT22;7676;50.900;6.234;2022-07-12T06:30:38;24.60;99.90
15152;DHT22;7676;50.900;6.234;2022-07-12T06:35:40;23.80;99.90
15152;DHT22;7676;50.900;6.234;2022-07-12T06:40:43;22.90;99.90
15152;DHT22;7676;50.900;6.234;2022-07-12T06:45:45;23.10;99.90
15152;DHT22;7676;50.900;6.234;2022-07-12T06:50:47;23.30;99.90
15152;DHT22;7676;50.900;6.234;2022-07-12T06:55:50;23.50;99.90
15152;DHT22;7676;50.900;6.234;2022-07-12T07:00:52;23.70;99.90
15152;DHT22;7676;50.900;6.234;2022-07-12T07:05:56;23.70;99.90
15152;DHT22;7676;50.900;6.234;2022-07-12T07:10:58;23.50;99.90
15152;DHT22;7676;50.900;6.234;2022-07-12T07:16:00;23.10;99.90
15152;DHT22;7676;50.900;6.234;2022-07-12T07:21:03;22.40;99.90
15152;DHT22;7676;50.900;6.234;2022-07-12T07:26:05;22.70;99.90
15152;DHT22;7676;50.900;6.234;2022-07-12T07:31:08;22.60;99.90
15152;DHT22;7676;50.900;6.234;2022-07-12T07:36:10;22.80;99.90
15152;DHT22;7676;50.900;6.234;2022-07-12T07:41:13;23.10;99.90
15152;DHT22;7676;50.900;6.234;2022-07-12T07:46:15;22.80;99.90
15152;DHT22;7676;50.900;6.234;2022-07-12T07:51:18;23.00;99.90
15152;DHT22;7676;50.900;6.234;2022-07-12T07:56:20;24.10;99.90
15152;DHT22;7676;50.900;6.234;2022-07-12T08:01:22;23.90;99.90
15152;DHT22;7676;50.900;6.234;2022-07-12T08:06:45;23.20;99.90
15152;DHT22;7676;50.900;6.234;2022-07-12T08:11:48;23.00;99.90
15152;DHT22;7676;50.900;6.234;2022-07-12T08:16:50;23.50;99.90
15152;DHT22;7676;50.900;6.234;2022-07-12T08:21:53;23.40;99.90
15152;DHT22;7676;50.900;6.234;2022-07-12T08:26:55;23.50;99.90
15152;DHT22;7676;50.900;6.234;2022-07-12T08:31:57;23.60;99.90
15152;DHT22;7676;50.900;6.234;2022-07-12T08:37:00;24.00;99.90
15152;DHT22;7676;50.900;6.234;2022-07-12T08:42:04;24.30;99.90
15152;DHT22;7676;50.900;6.234;2022-07-12T08:47:08;24.80;99.90
15152;DHT22;7676;50.900;6.234;2022-07-12T08:52:27;25.80;99.90
15152;DHT22;7676;50.900;6.234;2022-07-12T08:57:30;25.40;99.90
15152;DHT22;7676;50.900;6.234;2022-07-12T09:07:49;26.50;99.90
15152;DHT22;7676;50.900;6.234;2022-07-12T09:12:53;27.10;99.90
15152;DHT22;7676;50.900;6.234;2022-07-12T09:18:04;26.10;99.90
15152;DHT22;7676;50.900;6.234;2022-07-12T09:23:09;27.20;99.90
15152;DHT22;7676;50.900;6.234;2022-07-12T09:28:13;26.80;99.90
15152;DHT22;7676;50.900;6.234;2022-07-12T09:33:20;26.90;99.90
15152;DHT22;7676;50.900;6.234;2022-07-12T09:38:51;27.30;99.90
15152;DHT22;7676;50.900;6.234;2022-07-12T09:44:02;26.50;99.90
15152;DHT22;7676;50.900;6.234;2022-07-12T09:49:05;26.50;99.90
15152;DHT22;7676;50.900;6.234;2022-07-12T09:54:09;26.50;99.90
15152;DHT22;7676;50.900;6.234;2022-07-12T09:59:17;27.30;99.90
15152;DHT22;7676;50.900;6.234;2022-07-12T10:04:23;27.70;99.90
15152;DHT22;7676;50.900;6.234;2022-07-12T10:09:26;27.10;99.90
15152;DHT22;7676;50.900;6.234;2022-07-12T10:14:29;26.60;99.90
15152;DHT22;7676;50.900;6.234;2022-07-12T10:19:31;28.30;99.90
15152;DHT22;7676;50.900;6.234;2022-07-12T10:30:13;27.60;99.90
15152;DHT22;7676;50.900;6.234;2022-07-12T10:35:23;28.40;99.90
15152;DHT22;7676;50.900;6.234;2022-07-12T10:40:26;28.50;99.90
15152;DHT22;7676;50.900;6.234;2022-07-12T10:45:42;29.90;99.40
15152;DHT22;7676;50.900;6.234;2022-07-12T11:06:26;30.90;94.50
15152;DHT22;7676;50.900;6.234;2022-07-12T11:11:33;30.40;94.80
15152;DHT22;7676;50.900;6.234;2022-07-12T11:16:46;31.10;92.30
15152;DHT22;7676;50.900;6.234;2022-07-12T11:21:51;30.80;90.90
15152;DHT22;7676;50.900;6.234;2022-07-12T11:27:00;30.10;90.70
15152;DHT22;7676;50.900;6.234;2022-07-12T11:32:04;29.90;92.80
15152;DHT22;7676;50.900;6.234;2022-07-12T11:37:13;31.20;91.80
15152;DHT22;7676;50.900;6.234;2022-07-12T11:42:16;31.60;91.60
15152;DHT22;7676;50.900;6.234;2022-07-12T11:47:22;31.60;87.80
15152;DHT22;7676;50.900;6.234;2022-07-12T11:52:25;31.40;85.50
15152;DHT22;7676;50.900;6.234;2022-07-12T11:57:27;31.20;87.70
15152;DHT22;7676;50.900;6.234;2022-07-12T12:02:32;30.30;89.80
15152;DHT22;7676;50.900;6.234;2022-07-12T12:07:34;29.50;89.60
15152;DHT22;7676;50.900;6.234;2022-07-12T12:12:45;30.20;87.60
15152;DHT22;7676;50.900;6.234;2022-07-12T12:17:56;31.30;86.60
15152;DHT22;7676;50.900;6.234;2022-07-12T12:22:59;31.90;87.00
15152;DHT22;7676;50.900;6.234;2022-07-12T12:28:04;30.40;85.70
15152;DHT22;7676;50.900;6.234;2022-07-12T12:33:36;30.70;87.20
15152;DHT22;7676;50.900;6.234;2022-07-12T12:38:39;30.90;85.00
15152;DHT22;7676;50.900;6.234;2022-07-12T12:43:42;30.70;86.80
15152;DHT22;7676;50.900;6.234;2022-07-12T12:48:48;30.80;82.60
15152;DHT22;7676;50.900;6.234;2022-07-12T12:53:55;29.30;86.50
15152;DHT22;7676;50.900;6.234;2022-07-12T12:58:59;29.40;85.30
15152;DHT22;7676;50.900;6.234;2022-07-12T13:04:01;29.40;86.40
15152;DHT22;7676;50.900;6.234;2022-07-12T13:09:04;30.50;85.50
15152;DHT22;7676;50.900;6.234;2022-07-12T13:14:06;31.00;82.80
15152;DHT22;7676;50.900;6.234;2022-07-12T13:19:09;31.50;78.50
15152;DHT22;7676;50.900;6.234;2022-07-12T13:24:11;30.50;82.70
15152;DHT22;7676;50.900;6.234;2022-07-12T13:29:14;29.80;81.70
15152;DHT22;7676;50.900;6.234;2022-07-12T13:34:17;29.80;80.20
15152;DHT22;7676;50.900;6.234;2022-07-12T13:51:07;31.10;76.20
15152;DHT22;7676;50.900;6.234;2022-07-12T13:56:30;31.10;76.10
15152;DHT22;7676;50.900;6.234;2022-07-12T14:01:37;30.50;77.90
15152;DHT22;7676;50.900;6.234;2022-07-12T14:06:40;31.40;75.30
15152;DHT22;7676;50.900;6.234;2022-07-12T14:11:42;31.80;73.20
15152;DHT22;7676;50.900;6.234;2022-07-12T14:16:45;31.00;74.60
15152;DHT22;7676;50.900;6.234;2022-07-12T14:21:48;31.30;72.60
15152;DHT22;7676;50.900;6.234;2022-07-12T14:26:51;31.10;73.10
15152;DHT22;7676;50.900;6.234;2022-07-12T14:31:55;31.70;72.20
15152;DHT22;7676;50.900;6.234;2022-07-12T14:37:01;31.90;76.20
15152;DHT22;7676;50.900;6.234;2022-07-12T14:42:04;31.30;70.70
15152;DHT22;7676;50.900;6.234;2022-07-12T14:47:06;30.80;72.30
15152;DHT22;7676;50.900;6.234;2022-07-12T14:52:10;31.40;74.90
15152;DHT22;7676;50.900;6.234;2022-07-12T14:57:13;31.10;71.90
15152;DHT22;7676;50.900;6.234;2022-07-12T15:02:16;31.50;71.80
15152;DHT22;7676;50.900;6.234;2022-07-12T15:07:20;31.30;72.20
15152;DHT22;7676;50.900;6.234;2022-07-12T15:12:22;30.30;74.40
15152;DHT22;7676;50.900;6.234;2022-07-12T15:17:25;30.40;74.30
15152;DHT22;7676;50.900;6.234;2022-07-12T15:22:27;30.10;77.70
15152;DHT22;7676;50.900;6.234;2022-07-12T15:27:30;30.20;75.30
15152;DHT22;7676;50.900;6.234;2022-07-12T15:32:32;30.20;76.40
15152;DHT22;7676;50.900;6.234;2022-07-12T15:37:39;29.70;76.10
15152;DHT22;7676;50.900;6.234;2022-07-12T15:42:41;30.30;75.20
15152;DHT22;7676;50.900;6.234;2022-07-12T15:47:44;30.00;75.40
15152;DHT22;7676;50.900;6.234;2022-07-12T15:52:46;30.10;75.50
15152;DHT22;7676;50.900;6.234;2022-07-12T15:58:07;29.80;77.00
15152;DHT22;7676;50.900;6.234;2022-07-12T16:03:10;29.60;76.90
15152;DHT22;7676;50.900;6.234;2022-07-12T16:08:13;29.70;80.40
15152;DHT22;7676;50.900;6.234;2022-07-12T16:13:16;30.00;77.60
15152;DHT22;7676;50.900;6.234;2022-07-12T16:18:18;29.80;76.50
15152;DHT22;7676;50.900;6.234;2022-07-12T16:23:22;29.70;76.80
15152;DHT22;7676;50.900;6.234;2022-07-12T16:28:24;29.90;78.10
15152;DHT22;7676;50.900;6.234;2022-07-12T16:33:27;30.00;78.80
15152;DHT22;7676;50.900;6.234;2022-07-12T16:38:30;29.70;78.10
15152;DHT22;7676;50.900;6.234;2022-07-12T16:43:32;29.70;85.50
15152;DHT22;7676;50.900;6.234;2022-07-12T16:48:35;29.40;86.80
15152;DHT22;7676;50.900;6.234;2022-07-12T16:53:38;29.30;86.30
15152;DHT22;7676;50.900;6.234;2022-07-12T16:58:41;29.30;81.50
15152;DHT22;7676;50.900;6.234;2022-07-12T17:03:44;29.20;81.50
15152;DHT22;7676;50.900;6.234;2022-07-12T17:08:47;29.30;84.70
15152;DHT22;7676;50.900;6.234;2022-07-12T17:13:49;29.00;84.60
15152;DHT22;7676;50.900;6.234;2022-07-12T17:18:52;29.00;86.60
15152;DHT22;7676;50.900;6.234;2022-07-12T17:23:58;29.10;87.00
15152;DHT22;7676;50.900;6.234;2022-07-12T17:29:14;29.10;86.70
15152;DHT22;7676;50.900;6.234;2022-07-12T17:34:17;29.10;85.30
15152;DHT22;7676;50.900;6.234;2022-07-12T17:39:20;29.10;87.60
15152;DHT22;7676;50.900;6.234;2022-07-12T17:44:22;29.00;88.10
15152;DHT22;7676;50.900;6.234;2022-07-12T17:49:28;29.10;86.40
15152;DHT22;7676;50.900;6.234;2022-07-12T17:54:30;29.20;87.70
15152;DHT22;7676;50.900;6.234;2022-07-12T17:59:33;29.20;89.60
15152;DHT22;7676;50.900;6.234;2022-07-12T18:04:36;29.00;91.00
15152;DHT22;7676;50.900;6.234;2022-07-12T18:09:38;28.80;90.30
15152;DHT22;7676;50.900;6.234;2022-07-12T18:14:41;28.90;90.00
15152;DHT22;7676;50.900;6.234;2022-07-12T18:19:54;28.90;89.80
15152;DHT22;7676;50.900;6.234;2022-07-12T18:24:56;29.00;88.60
15152;DHT22;7676;50.900;6.234;2022-07-12T18:30:04;28.70;89.40
15152;DHT22;7676;50.900;6.234;2022-07-12T18:35:07;28.80;89.10
15152;DHT22;7676;50.900;6.234;2022-07-12T18:40:11;28.90;88.80
15152;DHT22;7676;50.900;6.234;2022-07-12T18:45:13;28.90;85.90
15152;DHT22;7676;50.900;6.234;2022-07-12T18:50:16;29.00;86.80
15152;DHT22;7676;50.900;6.234;2022-07-12T18:55:24;28.80;87.80
15152;DHT22;7676;50.900;6.234;2022-07-12T19:00:27;28.70;88.90
15152;DHT22;7676;50.900;6.234;2022-07-12T19:05:29;28.60;89.90
15152;DHT22;7676;50.900;6.234;2022-07-12T19:10:39;28.90;89.60
15152;DHT22;7676;50.900;6.234;2022-07-12T19:15:42;28.90;90.30
15152;DHT22;7676;50.900;6.234;2022-07-12T19:20:45;29.10;90.40
15152;DHT22;7676;50.900;6.234;2022-07-12T19:25:48;29.00;90.60
15152;DHT22;7676;50.900;6.234;2022-07-12T19:30:53;29.10;91.70
15152;DHT22;7676;50.900;6.234;2022-07-12T19:36:15;29.10;92.40
15152;DHT22;7676;50.900;6.234;2022-07-12T19:41:18;29.10;93.60
15152;DHT22;7676;50.900;6.234;2022-07-12T19:46:22;29.10;93.90
15152;DHT22;7676;50.900;6.234;2022-07-12T19:51:25;29.00;94.40
15152;DHT22;7676;50.900;6.234;2022-07-12T19:56:28;29.00;94.70
15152;DHT22;7676;50.900;6.234;2022-07-12T20:01:31;28.90;94.20
15152;DHT22;7676;50.900;6.234;2022-07-12T20:06:34;28.80;95.00
15152;DHT22;7676;50.900;6.234;2022-07-12T20:11:37;28.70;95.60
15152;DHT22;7676;50.900;6.234;2022-07-12T20:16:39;28.70;96.10
15152;DHT22;7676;50.900;6.234;2022-07-12T20:21:42;28.90;95.80
15152;DHT22;7676;50.900;6.234;2022-07-12T20:26:45;28.90;95.70
15152;DHT22;7676;50.900;6.234;2022-07-12T20:31:49;29.00;95.30
15152;DHT22;7676;50.900;6.234;2022-07-12T20:36:57;29.00;94.20
15152;DHT22;7676;50.900;6.234;2022-07-12T20:42:03;29.00;92.70
15152;DHT22;7676;50.900;6.234;2022-07-12T20:47:05;28.90;93.40
15152;DHT22;7676;50.900;6.234;2022-07-12T20:52:13;28.90;94.10
15152;DHT22;7676;50.900;6.234;2022-07-12T20:57:16;28.80;94.50
15152;DHT22;7676;50.900;6.234;2022-07-12T21:02:21;28.70;94.10
15152;DHT22;7676;50.900;6.234;2022-07-12T21:07:24;28.60;94.30
15152;DHT22;7676;50.900;6.234;2022-07-12T21:12:28;28.60;94.20
15152;DHT22;7676;50.900;6.234;2022-07-12T21:17:33;28.30;97.10
15152;DHT22;7676;50.900;6.234;2022-07-12T21:22:36;28.10;97.10
15152;DHT22;7676;50.900;6.234;2022-07-12T21:27:39;28.00;99.90
15152;DHT22;7676;50.900;6.234;2022-07-12T21:32:43;27.70;99.90
15152;DHT22;7676;50.900;6.234;2022-07-12T21:37:45;27.80;98.90
15152;DHT22;7676;50.900;6.234;2022-07-12T21:42:48;28.00;97.50
15152;DHT22;7676;50.900;6.234;2022-07-12T21:47:51;28.00;97.10
15152;DHT22;7676;50.900;6.234;2022-07-12T21:52:58;28.00;97.60
15152;DHT22;7676;50.900;6.234;2022-07-12T21:58:01;27.70;97.30
15152;DHT22;7676;50.900;6.234;2022-07-12T22:03:03;27.50;97.80
15152;DHT22;7676;50.900;6.234;2022-07-12T22:08:06;27.20;97.80
15152;DHT22;7676;50.900;6.234;2022-07-12T22:13:09;26.90;98.80
15152;DHT22;7676;50.900;6.234;2022-07-12T22:18:11;27.00;98.60
15152;DHT22;7676;50.900;6.234;2022-07-12T22:23:14;26.80;99.40
15152;DHT22;7676;50.900;6.234;2022-07-12T22:28:17;26.80;99.90
15152;DHT22;7676;50.900;6.234;2022-07-12T22:33:20;26.70;99.90
15152;DHT22;7676;50.900;6.234;2022-07-12T22:38:23;26.60;99.80
15152;DHT22;7676;50.900;6.234;2022-07-12T22:43:27;26.80;99.30
15152;DHT22;7676;50.900;6.234;2022-07-12T22:48:30;26.70;98.50
15152;DHT22;7676;50.900;6.234;2022-07-12T22:53:34;26.80;98.80
15152;DHT22;7676;50.900;6.234;2022-07-12T22:58:36;26.70;98.70
15152;DHT22;7676;50.900;6.234;2022-07-12T23:03:39;26.70;98.40
15152;DHT22;7676;50.900;6.234;2022-07-12T23:08:41;26.50;98.40
15152;DHT22;7676;50.900;6.234;2022-07-12T23:13:45;26.40;98.20
15152;DHT22;7676;50.900;6.234;2022-07-12T23:18:47;26.30;98.00
15152;DHT22;7676;50.900;6.234;2022-07-12T23:23:50;26.20;98.30
15152;DHT22;7676;50.900;6.234;2022-07-12T23:28:53;26.00;99.00
15152;DHT22;7676;50.900;6.234;2022-07-12T23:33:55;26.00;98.90
15152;DHT22;7676;50.900;6.234;2022-07-12T23:38:58;25.90;99.30
15152;DHT22;7676;50.900;6.234;2022-07-12T23:44:01;25.70;99.80
15152;DHT22;7676;50.900;6.234;2022-07-12T23:49:03;25.70;99.90
15152;DHT22;7676;50.900;6.234;2022-07-12T23:54:06;25.90;99.90
15152;DHT22;7676;50.900;6.234;2022-07-12T23:59:10;25.70;99.70
